Terminal Aerodrome Forecast
Issued by NWS

Home | Current Version | Previous Version | Text Only | Print | Product List | Glossary On
Versions: 1 2 3 4 5 6 7 8 9 10 11 12 13 14 15 16 17 18 19 20 21 22 23 24
000
FTUS41 KBGM 311600 AAC
TAFRME
TAF AMD
KRME 311628Z 3116/0112 25005KT P6SM SCT015 BKN035
      TEMPO 3116/3118 BKN015
     FM311800 23008KT P6SM BKN040 BKN100
      TEMPO 3118/3122 5SM SHRA BR OVC035
     FM010100 VRB03KT P6SM BKN100=

USA.gov is the U.S. government's official web portal to all federal, state and local government web resources and services.